createdAt,value
2022-11-25T00:00:03.937Z,100159.09
2022-11-25T00:01:29.613Z,100151.16
2022-11-25T00:02:11.033Z,100140.47
2022-11-25T00:02:52.035Z,100150.31
2022-11-25T00:03:32.877Z,100145.72
2022-11-25T00:04:13.066Z,100152.69
2022-11-25T00:04:52.920Z,100151.56
2022-11-25T00:05:35.101Z,100146.97
2022-11-25T00:06:32.328Z,100126.53
2022-11-25T00:07:19.864Z,100150.47
2022-11-25T00:07:54.051Z,100142.19
2022-11-25T00:08:41.982Z,100152.69
2022-11-25T00:09:20.117Z,100158.97
2022-11-25T00:10:06.878Z,100144.09
2022-11-25T00:10:47.972Z,100150.31
2022-11-25T00:11:42.983Z,100162.44
2022-11-25T00:12:36.884Z,100158.22
2022-11-25T00:13:30.818Z,100151.75
2022-11-25T00:14:27.914Z,100162.72
2022-11-25T00:15:23.903Z,100161.06
2022-11-25T00:16:16.967Z,100154.47
2022-11-25T00:16:51.030Z,100156.72
2022-11-25T00:17:37.852Z,100162.59
2022-11-25T00:18:11.983Z,100128.06
2022-11-25T00:19:01.890Z,100152.81
2022-11-25T00:19:35.952Z,100151.91
2022-11-25T00:20:22.810Z,100156.34
2022-11-25T00:20:56.960Z,100160.56
2022-11-25T00:21:40.921Z,100153.25
2022-11-25T00:22:22.979Z,100153.25
2022-11-25T00:23:02.973Z,100155.81
2022-11-25T00:23:43.955Z,100153.75
2022-11-25T00:24:24.902Z,100161.00
2022-11-25T00:25:05.101Z,100156.31
2022-11-25T00:25:44.831Z,100159.19
2022-11-25T00:26:26.235Z,100156.50
2022-11-25T00:27:06.907Z,100155.56
2022-11-25T00:27:46.995Z,100156.50
2022-11-25T00:28:27.841Z,100157.75
2022-11-25T00:29:11.305Z,100152.28
2022-11-25T00:29:51.820Z,100151.53
2022-11-25T00:30:31.948Z,100146.84
2022-11-25T00:31:30.973Z,100149.78
2022-11-25T00:32:19.884Z,100155.28
2022-11-25T00:33:13.856Z,100154.44
2022-11-25T00:34:08.802Z,100153.84
2022-11-25T00:35:02.815Z,100157.50
2022-11-25T00:35:56.823Z,100159.09
2022-11-25T00:36:51.975Z,100159.03
2022-11-25T00:37:39.855Z,100163.41
2022-11-25T00:38:13.994Z,100148.13
2022-11-25T00:39:01.929Z,100163.81
2022-11-25T00:39:36.062Z,100167.25
2022-11-25T00:40:22.828Z,100163.41
2022-11-25T00:41:18.495Z,100135.72
2022-11-25T00:42:24.893Z,100160.19
2022-11-25T00:43:25.004Z,100134.31
2022-11-25T00:44:38.968Z,100162.25
2022-11-25T00:45:34.955Z,100164.06
2022-11-25T00:46:29.806Z,100162.38
2022-11-25T00:47:27.869Z,100160.44
2022-11-25T00:48:21.943Z,100161.97
2022-11-25T00:49:02.872Z,100149.72
2022-11-25T00:49:44.975Z,100163.69
2022-11-25T00:50:25.832Z,100165.78
2022-11-25T00:51:05.941Z,100154.00
2022-11-25T00:51:46.818Z,100153.94
2022-11-25T00:52:31.036Z,100140.25
2022-11-25T00:53:11.835Z,100162.72
2022-11-25T00:53:57.454Z,100163.88
2022-11-25T00:54:39.899Z,100166.34
2022-11-25T00:55:21.116Z,100167.19
2022-11-25T00:56:36.961Z,100162.53
2022-11-25T00:57:19.198Z,100165.78
2022-11-25T00:57:59.910Z,100164.25
2022-11-25T00:58:40.133Z,100158.13
2022-11-25T00:59:20.827Z,100166.53
2022-11-25T01:00:01.826Z,100163.84
2022-11-25T01:00:36.049Z,100169.66
2022-11-25T01:01:23.897Z,100176.78
2022-11-25T01:01:59.364Z,100182.59
2022-11-25T01:02:46.855Z,100167.28
2022-11-25T01:03:22.020Z,100175.31
2022-11-25T01:04:09.792Z,100183.34
2022-11-25T01:04:44.929Z,100170.34
2022-11-25T01:05:25.825Z,100163.47
2022-11-25T01:06:10.929Z,100172.44
2022-11-25T01:06:51.812Z,100163.38
2022-11-25T01:07:34.016Z,100173.59
2022-11-25T01:08:14.783Z,100164.81
2022-11-25T01:08:55.943Z,100155.81
2022-11-25T01:09:37.867Z,100170.53
2022-11-25T01:10:18.993Z,100177.50
2022-11-25T01:11:09.917Z,100164.81
2022-11-25T01:11:51.468Z,100173.03
2022-11-25T01:12:32.946Z,100172.81
2022-11-25T01:13:13.923Z,100168.41
2022-11-25T01:14:00.709Z,100171.50
2022-11-25T01:14:41.928Z,100159.06
2022-11-25T01:15:22.818Z,100178.91
2022-11-25T01:16:03.901Z,100181.59
2022-11-25T01:16:44.897Z,100172.63
2022-11-25T01:17:25.865Z,100162.84
2022-11-25T01:18:06.813Z,100164.38
2022-11-25T01:18:46.897Z,100156.56
2022-11-25T01:19:27.820Z,100172.03
2022-11-25T01:20:07.983Z,100167.91
2022-11-25T01:20:48.776Z,100165.13
2022-11-25T01:21:32.044Z,100174.50
2022-11-25T01:22:14.810Z,100171.72
2022-11-25T01:22:54.856Z,100179.59
2022-11-25T01:23:35.780Z,100181.31
2022-11-25T01:24:16.888Z,100179.09
2022-11-25T01:24:57.751Z,100169.03
2022-11-25T01:25:37.820Z,100175.25
2022-11-25T01:26:21.804Z,100175.25
2022-11-25T01:27:04.091Z,100170.31
2022-11-25T01:27:49.832Z,100168.97
2022-11-25T01:28:29.858Z,100175.66
2022-11-25T01:29:13.812Z,100171.44
2022-11-25T01:29:54.994Z,100172.31
2022-11-25T01:30:40.934Z,100174.13
2022-11-25T01:31:26.180Z,100180.84
2022-11-25T01:32:06.864Z,100183.88
2022-11-25T01:32:48.096Z,100181.59
2022-11-25T01:33:28.832Z,100180.63
2022-11-25T01:34:14.969Z,100174.22
2022-11-25T01:34:55.803Z,100171.53
2022-11-25T01:35:36.888Z,100182.03
2022-11-25T01:36:22.805Z,100180.03
2022-11-25T01:37:03.890Z,100173.88
2022-11-25T01:37:44.798Z,100182.78
2022-11-25T01:38:25.867Z,100178.09
2022-11-25T01:39:07.759Z,100180.78
2022-11-25T01:39:47.799Z,100173.03
2022-11-25T01:40:28.747Z,100178.31
2022-11-25T01:41:12.836Z,100177.44
2022-11-25T01:41:54.736Z,100175.41
2022-11-25T01:42:37.960Z,100180.38
2022-11-25T01:43:21.769Z,100161.63
2022-11-25T01:44:42.768Z,100175.97
2022-11-25T01:45:36.808Z,100172.34
2022-11-25T01:46:41.893Z,100175.13
2022-11-25T01:47:37.826Z,100179.91
2022-11-25T01:48:46.739Z,100170.19
2022-11-25T01:50:04.813Z,100179.81
2022-11-25T01:51:00.788Z,100172.34
2022-11-25T01:52:15.815Z,100166.25
2022-11-25T01:53:10.836Z,100166.78
2022-11-25T01:54:05.771Z,100175.28
2022-11-25T01:55:21.789Z,100179.78
2022-11-25T01:56:17.765Z,100172.50
2022-11-25T01:57:28.713Z,100165.19
2022-11-25T01:58:28.797Z,100164.47
2022-11-25T01:59:22.794Z,100167.69
2022-11-25T02:00:20.807Z,100174.56
2022-11-25T02:01:01.839Z,100159.78
2022-11-25T02:01:43.334Z,100178.00
2022-11-25T02:02:25.809Z,100174.34
2022-11-25T02:03:05.787Z,100172.66
2022-11-25T02:03:51.807Z,100174.34
2022-11-25T02:04:39.956Z,100178.59
2022-11-25T02:05:28.395Z,100173.06
2022-11-25T02:06:30.926Z,100168.97
2022-11-25T02:07:20.850Z,100164.47
2022-11-25T02:08:01.023Z,100171.75
2022-11-25T02:08:41.732Z,100181.28
2022-11-25T02:09:22.889Z,100169.63
2022-11-25T02:10:03.709Z,100173.81
2022-11-25T02:10:45.823Z,100171.34
2022-11-25T02:11:21.835Z,100153.00
2022-11-25T02:12:10.769Z,100177.91
2022-11-25T02:12:48.068Z,100151.19
2022-11-25T02:13:35.791Z,100165.56
2022-11-25T02:14:17.031Z,100178.75
2022-11-25T02:14:58.763Z,100178.75
2022-11-25T02:15:40.835Z,100186.78
2022-11-25T02:16:20.870Z,100171.78
2022-11-25T02:17:02.594Z,100181.53
2022-11-25T02:17:42.725Z,100182.69
2022-11-25T02:18:23.973Z,100194.28
2022-11-25T02:19:04.880Z,100188.06
2022-11-25T02:20:00.841Z,100194.50
2022-11-25T02:20:40.757Z,100183.50
2022-11-25T02:21:34.757Z,100203.53
2022-11-25T02:22:15.885Z,100192.63
2022-11-25T02:23:32.764Z,100206.06
2022-11-25T02:24:43.621Z,100198.59
2022-11-25T02:25:40.774Z,100202.44
2022-11-25T02:26:14.682Z,100203.00
2022-11-25T02:26:55.785Z,100198.91
2022-11-25T02:27:30.944Z,100200.72
2022-11-25T02:28:19.375Z,100188.88
2022-11-25T02:29:00.778Z,100203.69
2022-11-25T02:29:35.864Z,100202.81
2022-11-25T02:30:10.647Z,100199.59
2022-11-25T02:30:52.726Z,100202.94
2022-11-25T02:31:31.278Z,100202.16
2022-11-25T02:32:12.865Z,100198.84
2022-11-25T02:32:54.849Z,100185.44
2022-11-25T02:33:35.749Z,100190.81
2022-11-25T02:34:16.898Z,100192.69
2022-11-25T02:34:57.733Z,100201.03
2022-11-25T02:35:45.734Z,100199.97
2022-11-25T02:36:28.695Z,100199.69
2022-11-25T02:37:08.755Z,100190.88
2022-11-25T02:37:49.706Z,100194.34
2022-11-25T02:39:02.964Z,100183.75
2022-11-25T02:39:44.689Z,100195.97
2022-11-25T02:40:24.772Z,100193.94
2022-11-25T02:41:37.716Z,100187.94
2022-11-25T02:42:18.779Z,100179.91
2022-11-25T02:42:59.713Z,100191.19
2022-11-25T02:43:39.848Z,100194.25
2022-11-25T02:44:20.722Z,100199.41
2022-11-25T02:45:01.813Z,100201.31
2022-11-25T02:46:10.762Z,100205.25
2022-11-25T02:46:51.926Z,100206.09
2022-11-25T02:47:31.707Z,100192.31
2022-11-25T02:48:23.930Z,100206.09
2022-11-25T02:49:10.131Z,100213.16
2022-11-25T02:49:58.677Z,100210.16
2022-11-25T02:50:32.725Z,100209.03
2022-11-25T02:51:21.721Z,100207.56
2022-11-25T02:51:55.880Z,100204.50
2022-11-25T02:52:42.736Z,100192.25
2022-11-25T02:53:16.939Z,100207.53
2022-11-25T02:53:57.703Z,100204.84
2022-11-25T02:54:31.910Z,100199.50
2022-11-25T02:55:06.546Z,100204.19
2022-11-25T02:55:47.683Z,100202.56
2022-11-25T02:56:25.831Z,100193.19
2022-11-25T02:56:59.608Z,100187.84
2022-11-25T02:57:40.696Z,100200.16
2022-11-25T02:58:14.777Z,100188.97
2022-11-25T02:58:48.682Z,100190.53
2022-11-25T02:59:29.710Z,100196.53
2022-11-25T03:00:03.841Z,100197.09
2022-11-25T03:00:37.529Z,100200.25
2022-11-25T03:01:18.769Z,100197.09
2022-11-25T03:01:52.779Z,100200.38
2022-11-25T03:02:26.638Z,100191.59
2022-11-25T03:03:07.663Z,100199.13
2022-11-25T03:03:42.692Z,100196.34
2022-11-25T03:04:17.625Z,100200.63
2022-11-25T03:04:58.694Z,100200.28
2022-11-25T03:05:32.987Z,100204.50
2022-11-25T03:06:08.202Z,100196.09
2022-11-25T03:06:49.676Z,100198.47
2022-11-25T03:07:23.908Z,100198.38
2022-11-25T03:07:57.931Z,100204.69
2022-11-25T03:08:38.678Z,100197.22
2022-11-25T03:09:13.962Z,100201.22
2022-11-25T03:09:48.848Z,100202.41
2022-11-25T03:10:29.677Z,100203.25
2022-11-25T03:11:03.719Z,100195.06
2022-11-25T03:11:56.364Z,100204.28
2022-11-25T03:12:37.659Z,100204.28
2022-11-25T03:13:13.765Z,100210.56
2022-11-25T03:13:48.415Z,100195.28
2022-11-25T03:14:29.646Z,100201.69
2022-11-25T03:15:03.766Z,100206.78
2022-11-25T03:15:44.655Z,100203.84
2022-11-25T03:16:24.724Z,100201.22
2022-11-25T03:17:04.636Z,100203.84
2022-11-25T03:17:44.854Z,100211.91
2022-11-25T03:18:25.652Z,100202.66
2022-11-25T03:19:05.808Z,100203.84
2022-11-25T03:19:46.621Z,100211.56
2022-11-25T03:20:27.761Z,100203.16
2022-11-25T03:21:07.761Z,100203.16
2022-11-25T03:21:47.760Z,100206.31
2022-11-25T03:22:28.656Z,100206.56
2022-11-25T03:23:10.914Z,100202.28
2022-11-25T03:23:51.629Z,100207.53
2022-11-25T03:24:33.076Z,100209.25
2022-11-25T03:25:14.612Z,100211.44
2022-11-25T03:25:55.839Z,100213.63
2022-11-25T03:26:36.693Z,100212.34
2022-11-25T03:27:17.734Z,100204.63
2022-11-25T03:27:59.666Z,100207.56
2022-11-25T03:28:40.732Z,100216.59
2022-11-25T03:29:20.646Z,100213.22
2022-11-25T03:30:01.691Z,100203.47
2022-11-25T03:30:41.658Z,100205.47
2022-11-25T03:31:22.793Z,100179.31
2022-11-25T03:32:08.190Z,100210.13
2022-11-25T03:32:50.738Z,100216.03
2022-11-25T03:33:30.603Z,100209.78
2022-11-25T03:34:11.815Z,100206.84
2022-11-25T03:34:51.629Z,100208.56
2022-11-25T03:35:32.767Z,100212.19
2022-11-25T03:36:13.651Z,100200.34
2022-11-25T03:36:54.717Z,100212.56
2022-11-25T03:37:42.679Z,100211.56
2022-11-25T03:38:16.885Z,100207.78
2022-11-25T03:39:03.647Z,100202.22
2022-11-25T03:39:37.675Z,100213.13
2022-11-25T03:40:25.660Z,100209.13
2022-11-25T03:40:59.983Z,100208.28
2022-11-25T03:41:46.608Z,100208.44
2022-11-25T03:42:20.663Z,100208.94
2022-11-25T03:43:08.671Z,100209.47
2022-11-25T03:43:42.792Z,100205.50
2022-11-25T03:44:29.701Z,100206.84
2022-11-25T03:45:03.740Z,100206.38
2022-11-25T03:45:50.659Z,100203.59
2022-11-25T03:46:24.853Z,100207.91
2022-11-25T03:47:12.611Z,100209.53
2022-11-25T03:47:48.927Z,100216.03
2022-11-25T03:48:29.644Z,100192.84
2022-11-25T03:49:10.700Z,100211.69
2022-11-25T03:49:52.606Z,100207.34
2022-11-25T03:50:32.726Z,100205.28
2022-11-25T03:51:13.717Z,100206.91
2022-11-25T03:51:55.684Z,100199.75
2022-11-25T03:52:36.623Z,100202.34
2022-11-25T03:53:16.674Z,100203.91
2022-11-25T03:53:57.657Z,100199.44
2022-11-25T03:54:38.066Z,100199.28
2022-11-25T03:55:19.613Z,100204.41
2022-11-25T03:56:00.042Z,100194.53
2022-11-25T03:56:40.632Z,100202.16
2022-11-25T03:57:20.745Z,100200.25
2022-11-25T03:58:01.635Z,100200.63
2022-11-25T03:58:42.884Z,100201.38
2022-11-25T03:59:23.650Z,100200.25
2022-11-25T04:00:03.724Z,100193.34
2022-11-25T04:00:45.595Z,100201.22
2022-11-25T04:01:26.939Z,100203.78
2022-11-25T04:02:08.611Z,100206.78
2022-11-25T04:02:48.690Z,100198.47
2022-11-25T04:03:29.666Z,100197.44
2022-11-25T04:04:11.016Z,100194.38
2022-11-25T04:04:51.631Z,100206.34
2022-11-25T04:05:32.644Z,100207.72
2022-11-25T04:06:13.562Z,100212.13
2022-11-25T04:06:53.732Z,100199.88
2022-11-25T04:07:33.734Z,100205.75
2022-11-25T04:08:13.715Z,100218.19
2022-11-25T04:08:54.592Z,100208.09
2022-11-25T04:09:34.671Z,100212.84
2022-11-25T04:10:16.637Z,100210.78
2022-11-25T04:10:57.789Z,100202.22
2022-11-25T04:11:56.655Z,100202.81
2022-11-25T04:12:48.965Z,100209.63
2022-11-25T04:13:29.628Z,100208.97
2022-11-25T04:14:23.602Z,100203.69
2022-11-25T04:15:18.610Z,100207.31
2022-11-25T04:16:12.630Z,100204.47
2022-11-25T04:17:07.673Z,100209.03
2022-11-25T04:18:02.579Z,100211.47
2022-11-25T04:18:56.634Z,100216.13
2022-11-25T04:19:50.706Z,100207.31
2022-11-25T04:20:37.593Z,100214.97
2022-11-25T04:21:11.696Z,100213.09
2022-11-25T04:21:59.590Z,100219.09
2022-11-25T04:22:33.787Z,100219.34
2022-11-25T04:23:21.558Z,100219.19
2022-11-25T04:23:56.205Z,100221.75
2022-11-25T04:24:44.740Z,100219.72
2022-11-25T04:25:19.676Z,100215.91
2022-11-25T04:25:59.667Z,100214.22
2022-11-25T04:26:41.044Z,100201.09
2022-11-25T04:27:22.563Z,100220.41
2022-11-25T04:28:02.725Z,100215.22
2022-11-25T04:28:43.600Z,100219.56
2022-11-25T04:29:24.755Z,100214.09
2022-11-25T04:30:05.600Z,100209.59
2022-11-25T04:30:46.787Z,100225.25
2022-11-25T04:31:27.560Z,100217.41
2022-11-25T04:32:07.659Z,100216.47
2022-11-25T04:32:48.577Z,100225.25
2022-11-25T04:33:28.782Z,100218.19
2022-11-25T04:34:08.515Z,100218.00
2022-11-25T04:34:50.814Z,100220.41
2022-11-25T04:35:31.575Z,100214.38
2022-11-25T04:36:13.118Z,100225.28
2022-11-25T04:36:54.638Z,100207.63
2022-11-25T04:37:35.793Z,100213.63
2022-11-25T04:38:16.581Z,100211.38
2022-11-25T04:38:57.778Z,100220.00
2022-11-25T04:39:38.571Z,100213.63
2022-11-25T04:40:19.585Z,100215.38
2022-11-25T04:40:59.576Z,100217.84
2022-11-25T04:41:39.768Z,100225.50
2022-11-25T04:42:38.603Z,100217.47
2022-11-25T04:43:18.640Z,100220.94
2022-11-25T04:43:59.568Z,100218.16
2022-11-25T04:44:40.651Z,100229.91
2022-11-25T04:45:24.175Z,100220.00
2022-11-25T04:46:20.202Z,100221.69
2022-11-25T04:47:01.607Z,100219.63
2022-11-25T04:47:48.563Z,100218.94
2022-11-25T04:48:43.580Z,100222.53
2022-11-25T04:49:37.521Z,100224.25
2022-11-25T04:50:35.560Z,100222.06
2022-11-25T04:51:30.658Z,100228.16
2022-11-25T04:52:24.596Z,100216.41
2022-11-25T04:53:11.567Z,100225.97
2022-11-25T04:53:45.840Z,100224.63
2022-11-25T04:54:32.596Z,100215.75
2022-11-25T04:55:07.612Z,100223.50
2022-11-25T04:55:55.561Z,100218.91
2022-11-25T04:56:29.644Z,100221.94
2022-11-25T04:57:21.546Z,100220.72
2022-11-25T04:57:55.681Z,100227.28
2022-11-25T04:58:54.696Z,100221.78
2022-11-25T04:59:41.278Z,100226.91
2022-11-25T05:00:23.562Z,100226.38
2022-11-25T05:01:03.783Z,100231.50
2022-11-25T05:01:43.624Z,100221.56
2022-11-25T05:02:28.741Z,100228.72
2022-11-25T05:03:09.690Z,100227.28
2022-11-25T05:03:54.477Z,100215.75
2022-11-25T05:04:38.627Z,100230.16
2022-11-25T05:05:19.570Z,100228.34
2022-11-25T05:05:59.552Z,100226.91
2022-11-25T05:06:39.648Z,100218.13
2022-11-25T05:07:21.552Z,100224.06
2022-11-25T05:08:02.744Z,100222.34
2022-11-25T05:08:43.507Z,100214.13
2022-11-25T05:09:24.605Z,100221.38
2022-11-25T05:10:05.573Z,100223.88
2022-11-25T05:10:45.870Z,100221.22
2022-11-25T05:11:26.555Z,100216.03
2022-11-25T05:12:07.659Z,100216.41
2022-11-25T05:12:48.525Z,100216.78
2022-11-25T05:13:28.631Z,100229.78
2022-11-25T05:14:09.528Z,100220.03
2022-11-25T05:15:04.543Z,100206.03
2022-11-25T05:15:45.522Z,100221.00
2022-11-25T05:16:25.855Z,100223.88
2022-11-25T05:17:06.586Z,100222.25
2022-11-25T05:17:47.585Z,100225.69
2022-11-25T05:18:28.639Z,100223.97
2022-11-25T05:19:08.652Z,100226.63
2022-11-25T05:19:48.542Z,100214.72
2022-11-25T05:20:29.554Z,100219.06
2022-11-25T05:21:11.788Z,100221.00
2022-11-25T05:21:59.646Z,100213.00
2022-11-25T05:22:39.732Z,100215.84
2022-11-25T05:23:26.544Z,100208.94
2022-11-25T05:24:01.661Z,100223.69
2022-11-25T05:24:49.516Z,100223.69
2022-11-25T05:25:24.976Z,100199.41
2022-11-25T05:26:09.600Z,100221.88
2022-11-25T05:26:49.555Z,100220.47
2022-11-25T05:27:31.540Z,100227.03
2022-11-25T05:28:13.699Z,100225.97
2022-11-25T05:28:54.578Z,100223.66
2022-11-25T05:29:35.672Z,100236.06
2022-11-25T05:30:17.524Z,100226.88
2022-11-25T05:30:57.831Z,100235.66
2022-11-25T05:31:37.566Z,100225.50
2022-11-25T05:32:18.640Z,100228.19
2022-11-25T05:32:59.503Z,100227.22
2022-11-25T05:33:41.807Z,100223.63
2022-11-25T05:34:22.522Z,100224.38
2022-11-25T05:35:02.600Z,100226.88
2022-11-25T05:35:43.563Z,100229.50
2022-11-25T05:36:23.728Z,100229.91
2022-11-25T05:37:04.546Z,100231.72
2022-11-25T05:37:45.657Z,100228.28
2022-11-25T05:38:25.508Z,100237.75
2022-11-25T05:39:06.659Z,100229.13
2022-11-25T05:39:47.511Z,100213.84
2022-11-25T05:40:27.604Z,100191.59
2022-11-25T05:41:11.535Z,100230.19
2022-11-25T05:41:51.568Z,100223.56
2022-11-25T05:42:32.547Z,100230.25
2022-11-25T05:43:12.632Z,100224.00
2022-11-25T05:43:54.508Z,100228.38
2022-11-25T05:44:34.603Z,100223.88
2022-11-25T05:45:15.529Z,100217.38
2022-11-25T05:45:55.661Z,100219.50
2022-11-25T05:46:36.559Z,100210.22
2022-11-25T05:47:17.771Z,100220.34
2022-11-25T05:47:58.780Z,100222.94
2022-11-25T05:48:40.797Z,100218.81
2022-11-25T05:49:21.532Z,100227.78
2022-11-25T05:50:01.576Z,100219.72
2022-11-25T05:50:43.472Z,100231.00
2022-11-25T05:51:23.694Z,100225.38
2022-11-25T05:52:04.496Z,100217.47
2022-11-25T05:52:44.614Z,100224.00
2022-11-25T05:53:24.506Z,100229.69
2022-11-25T05:54:04.560Z,100231.22
2022-11-25T05:54:45.512Z,100233.50
2022-11-25T05:55:25.512Z,100231.19
2022-11-25T05:56:09.479Z,100231.19
2022-11-25T05:56:50.611Z,100228.69
2022-11-25T05:57:30.497Z,100233.78
2022-11-25T05:58:11.621Z,100220.69
2022-11-25T05:58:52.509Z,100239.38
2022-11-25T05:59:46.453Z,100244.94
2022-11-25T06:00:41.474Z,100226.59
2022-11-25T06:01:35.523Z,100235.25
2022-11-25T06:02:29.791Z,100243.19
2022-11-25T06:03:23.547Z,100236.69
2022-11-25T06:04:12.604Z,100230.97
2022-11-25T06:04:46.755Z,100230.63
2022-11-25T06:05:33.460Z,100238.44
2022-11-25T06:06:07.715Z,100241.31
2022-11-25T06:06:54.463Z,100230.75
2022-11-25T06:07:28.887Z,100232.84
2022-11-25T06:08:16.489Z,100232.81
2022-11-25T06:08:51.677Z,100232.06
2022-11-25T06:09:31.483Z,100226.34
2022-11-25T06:10:12.590Z,100232.09
2022-11-25T06:10:53.532Z,100246.91
2022-11-25T06:11:33.602Z,100244.59
2022-11-25T06:12:14.471Z,100238.28
2022-11-25T06:12:54.521Z,100245.38
2022-11-25T06:13:35.484Z,100240.78
2022-11-25T06:14:17.756Z,100247.47
2022-11-25T06:14:58.518Z,100254.16
2022-11-25T06:15:40.763Z,100262.19
2022-11-25T06:16:27.513Z,100254.31
2022-11-25T06:17:07.580Z,100254.91
2022-11-25T06:17:47.467Z,100258.91
2022-11-25T06:18:27.498Z,100262.13
2022-11-25T06:19:12.437Z,100244.84
2022-11-25T06:19:53.495Z,100254.31
2022-11-25T06:20:34.480Z,100250.53
2022-11-25T06:21:15.537Z,100258.97
2022-11-25T06:21:55.472Z,100263.78
2022-11-25T06:22:36.502Z,100252.38
2022-11-25T06:23:16.450Z,100231.22
2022-11-25T06:23:56.458Z,100261.81
2022-11-25T06:24:37.591Z,100260.69
2022-11-25T06:25:18.505Z,100263.91
2022-11-25T06:25:59.521Z,100254.53
2022-11-25T06:26:40.669Z,100259.03
2022-11-25T06:27:21.453Z,100265.38
2022-11-25T06:28:12.831Z,100264.81
2022-11-25T06:28:54.436Z,100264.09
2022-11-25T06:29:35.788Z,100262.09
2022-11-25T06:30:17.458Z,100268.38
2022-11-25T06:30:57.534Z,100256.25
2022-11-25T06:31:37.563Z,100271.56
2022-11-25T06:32:17.484Z,100266.03
2022-11-25T06:32:58.447Z,100273.84
2022-11-25T06:33:39.710Z,100266.78
2022-11-25T06:34:19.460Z,100266.69
2022-11-25T06:35:00.596Z,100267.50
2022-11-25T06:35:40.448Z,100267.56
2022-11-25T06:36:20.538Z,100273.38
2022-11-25T06:37:01.447Z,100256.94
2022-11-25T06:37:41.478Z,100266.03
2022-11-25T06:38:21.490Z,100271.91
2022-11-25T06:39:01.498Z,100280.88
2022-11-25T06:39:42.480Z,100236.44
2022-11-25T06:40:22.518Z,100282.03
2022-11-25T06:41:10.426Z,100281.84
2022-11-25T06:41:50.516Z,100281.63
2022-11-25T06:42:30.482Z,100276.66
2022-11-25T06:43:11.532Z,100283.34
2022-11-25T06:43:51.394Z,100282.50
2022-11-25T06:44:31.483Z,100287.69
2022-11-25T06:45:13.416Z,100287.75
2022-11-25T06:45:53.543Z,100287.59
2022-11-25T06:46:33.479Z,100278.38
2022-11-25T06:47:13.553Z,100279.22
2022-11-25T06:47:53.456Z,100282.50
2022-11-25T06:48:34.467Z,100287.72
2022-11-25T06:49:15.413Z,100283.72
2022-11-25T06:49:56.572Z,100282.59
2022-11-25T06:50:36.431Z,100269.59
2022-11-25T06:51:21.476Z,100281.78
2022-11-25T06:52:01.409Z,100284.09
2022-11-25T06:52:41.486Z,100286.13
2022-11-25T06:53:24.237Z,100279.13
2022-11-25T06:54:04.535Z,100279.69
2022-11-25T06:54:47.460Z,100279.94
2022-11-25T06:55:27.491Z,100288.47
2022-11-25T06:56:21.523Z,100281.66
2022-11-25T06:57:01.822Z,100282.63
2022-11-25T06:57:41.431Z,100285.03
2022-11-25T06:58:35.878Z,100277.00
2022-11-25T06:59:31.539Z,100284.66
2022-11-25T07:00:26.407Z,100265.16
2022-11-25T07:01:33.438Z,100289.88
2022-11-25T07:02:59.503Z,100283.38
2022-11-25T07:03:47.423Z,100272.78
2022-11-25T07:04:21.467Z,100275.19
2022-11-25T07:05:08.412Z,100268.78
2022-11-25T07:05:42.499Z,100256.94
2022-11-25T07:06:30.432Z,100278.63
2022-11-25T07:07:04.452Z,100271.44
2022-11-25T07:07:51.464Z,100283.03
2022-11-25T07:08:28.340Z,100267.16
2022-11-25T07:09:13.431Z,100277.59
2022-11-25T07:09:53.547Z,100280.03
2022-11-25T07:10:33.393Z,100285.78
2022-11-25T07:11:36.630Z,100293.19
2022-11-25T07:12:18.485Z,100284.16
2022-11-25T07:12:59.724Z,100293.78
2022-11-25T07:13:40.423Z,100293.88
2022-11-25T07:14:29.414Z,100287.94
2022-11-25T07:15:24.388Z,100290.00
2022-11-25T07:16:20.494Z,100293.25
2022-11-25T07:17:14.384Z,100283.00
2022-11-25T07:18:08.379Z,100286.91
2022-11-25T07:19:02.396Z,100294.91
2022-11-25T07:19:49.472Z,100306.56
2022-11-25T07:20:25.232Z,100296.59
2022-11-25T07:21:25.418Z,100301.72
2022-11-25T07:21:59.533Z,100304.13
2022-11-25T07:22:46.400Z,100304.03
2022-11-25T07:23:20.576Z,100302.69
2022-11-25T07:24:09.380Z,100298.13
2022-11-25T07:24:43.444Z,100304.50
2022-11-25T07:25:27.868Z,100300.47
2022-11-25T07:26:19.568Z,100304.50
2022-11-25T07:27:00.388Z,100306.03
2022-11-25T07:27:40.415Z,100311.38
2022-11-25T07:28:20.401Z,100312.63
2022-11-25T07:29:02.471Z,100303.94
2022-11-25T07:31:22.233Z,100308.50
2022-11-25T07:31:45.447Z,100311.69
2022-11-25T07:32:32.412Z,100316.00
2022-11-25T07:33:06.495Z,100281.53
2022-11-25T07:33:53.373Z,100306.03
2022-11-25T07:34:27.496Z,100314.44
2022-11-25T07:35:14.381Z,100290.34
2022-11-25T07:36:02.508Z,100311.50
2022-11-25T07:36:36.441Z,100310.06
2022-11-25T07:37:24.467Z,100313.44
2022-11-25T07:37:58.157Z,100320.38
2022-11-25T07:38:47.372Z,100312.03
2022-11-25T07:39:23.273Z,100313.09
2022-11-25T07:40:10.368Z,100309.47
2022-11-25T07:40:44.190Z,100317.97
2022-11-25T07:41:31.427Z,100333.16
2022-11-25T07:42:05.407Z,100316.06
2022-11-25T07:42:39.053Z,100316.25
2022-11-25T07:43:19.344Z,100321.91
2022-11-25T07:43:55.499Z,100320.72
2022-11-25T07:44:29.171Z,100324.19
2022-11-25T07:45:09.367Z,100323.22
2022-11-25T07:45:43.430Z,100318.81
2022-11-25T07:46:44.486Z,100309.84
2022-11-25T07:47:25.500Z,100322.69
2022-11-25T07:48:05.378Z,100320.06
2022-11-25T07:48:46.430Z,100328.78
2022-11-25T07:49:31.444Z,100319.91
2022-11-25T07:50:12.375Z,100320.75
2022-11-25T07:50:53.404Z,100321.53
2022-11-25T07:51:40.409Z,100323.44
2022-11-25T07:52:21.551Z,100323.31
2022-11-25T07:53:01.422Z,100319.19
2022-11-25T07:53:41.351Z,100326.00
2022-11-25T07:54:22.470Z,100331.25
2022-11-25T07:55:02.359Z,100327.81
2022-11-25T07:55:42.365Z,100323.97
2022-11-25T07:56:23.342Z,100319.47
2022-11-25T07:57:04.414Z,100294.00
2022-11-25T07:57:44.396Z,100321.63
2022-11-25T07:58:24.466Z,100325.34
2022-11-25T07:59:04.348Z,100333.28
2022-11-25T07:59:44.508Z,100332.22
2022-11-25T08:00:25.372Z,100331.00
2022-11-25T08:01:10.944Z,100332.22
2022-11-25T08:01:51.386Z,100325.19
2022-11-25T08:02:31.442Z,100323.97
2022-11-25T08:03:11.434Z,100330.72
2022-11-25T08:03:53.427Z,100331.84
2022-11-25T08:04:33.353Z,100325.72
2022-11-25T08:05:14.449Z,100335.25
2022-11-25T08:05:55.369Z,100341.41
2022-11-25T08:06:36.372Z,100330.13
2022-11-25T08:07:18.373Z,100330.47
2022-11-25T08:07:58.428Z,100327.81
2022-11-25T08:08:39.402Z,100338.66
2022-11-25T08:09:24.495Z,100338.88
2022-11-25T08:10:04.373Z,100338.22
2022-11-25T08:10:47.469Z,100333.16
2022-11-25T08:11:35.344Z,100336.59
2022-11-25T08:12:15.389Z,100335.47
2022-11-25T08:12:55.347Z,100330.72
2022-11-25T08:13:35.357Z,100330.19
2022-11-25T08:14:16.387Z,100330.88
2022-11-25T08:14:56.585Z,100324.94
2022-11-25T08:15:39.426Z,100327.97